Time;durP1;ratioP1;P1;durP2;ratioP2;P2;SDS_P1;SDS_P2;PMS_P1;PMS_P2;Temp;Humidity;BMP_temperature;BMP_pressure;BME280_temperature;BME280_humidity;BME280_pressure;Samples;Min_cycle;Max_cycle;Signal;HPM_P1;HPM_P2
2021/03/05 00:01:55;;;;;;;12.03;6.63;;;7.00;99.90;;;;;;4994041;28;20049;-85
2021/03/05 00:04:21;;;;;;;12.23;6.37;;;7.00;99.90;;;;;;4994715;28;20023;-86
2021/03/05 00:06:47;;;;;;;9.70;6.40;;;6.90;99.90;;;;;;4977936;28;20033;-86
2021/03/05 00:09:13;;;;;;;11.47;6.73;;;7.00;99.90;;;;;;4985639;28;20510;-86
2021/03/05 00:11:39;;;;;;;13.00;7.00;;;6.90;99.90;;;;;;4992838;28;20035;-86
2021/03/05 00:14:05;;;;;;;13.20;7.63;;;6.90;99.90;;;;;;4972950;28;20026;-86
2021/03/05 00:16:30;;;;;;;14.33;10.13;;;6.90;99.90;;;;;;4994333;28;20379;-86
2021/03/05 00:18:56;;;;;;;16.87;11.20;;;7.00;99.90;;;;;;4977705;28;20026;-86
2021/03/05 00:21:22;;;;;;;16.03;11.10;;;7.00;99.90;;;;;;4986322;28;20030;-86
2021/03/05 00:23:47;;;;;;;15.03;11.10;;;6.80;99.90;;;;;;4991371;28;20114;-87
2021/03/05 00:26:13;;;;;;;13.90;10.13;;;6.70;99.90;;;;;;4980248;28;20023;-86
2021/03/05 00:28:38;;;;;;;16.73;11.00;;;6.60;99.90;;;;;;4992849;28;20050;-86
2021/03/05 00:31:04;;;;;;;17.83;11.60;;;6.40;99.90;;;;;;4993958;28;20101;-86
2021/03/05 00:33:30;;;;;;;20.70;13.93;;;6.30;99.90;;;;;;4978041;28;20053;-85
2021/03/05 00:35:55;;;;;;;21.07;14.60;;;6.30;99.90;;;;;;4992914;28;20038;-86
2021/03/05 00:38:23;;;;;;;21.73;14.83;;;6.20;99.90;;;;;;4992020;28;20080;-87
2021/03/05 00:40:48;;;;;;;22.57;15.67;;;6.10;99.90;;;;;;4991938;28;20557;-87
2021/03/05 00:43:14;;;;;;;24.73;16.80;;;6.00;99.90;;;;;;4980604;28;20062;-87
2021/03/05 00:45:40;;;;;;;24.23;16.43;;;6.10;99.90;;;;;;4969757;28;20113;-86
2021/03/05 00:48:06;;;;;;;26.57;17.63;;;6.00;99.90;;;;;;4990971;28;20050;-87
2021/03/05 00:50:32;;;;;;;26.77;17.70;;;5.90;99.90;;;;;;4992151;28;20090;-86
2021/03/05 00:52:58;;;;;;;27.23;17.83;;;5.80;99.90;;;;;;4993361;28;20112;-86
2021/03/05 00:55:23;;;;;;;28.23;19.23;;;5.80;99.90;;;;;;4995394;28;20030;-87
2021/03/05 00:57:49;;;;;;;28.50;19.10;;;5.70;99.90;;;;;;4990611;28;20502;-87
2021/03/05 01:00:16;;;;;;;29.23;19.13;;;5.70;99.90;;;;;;4969199;28;20033;-87
2021/03/05 01:02:43;;;;;;;27.17;17.37;;;5.60;99.90;;;;;;4975472;28;20105;-86
2021/03/05 01:05:09;;;;;;;28.83;18.47;;;5.70;99.90;;;;;;4977000;28;20058;-86
2021/03/05 01:07:35;;;;;;;28.03;17.43;;;5.50;99.90;;;;;;4976856;28;20029;-86
2021/03/05 01:10:03;;;;;;;30.10;19.73;;;5.40;99.90;;;;;;4979370;28;20030;-86
2021/03/05 01:12:28;;;;;;;30.13;19.70;;;5.20;99.90;;;;;;4994631;28;20034;-86
2021/03/05 01:14:54;;;;;;;30.80;19.20;;;5.10;99.90;;;;;;4993390;28;20118;-87
2021/03/05 01:17:20;;;;;;;32.87;20.67;;;5.00;99.90;;;;;;4977837;28;20489;-87
2021/03/05 01:19:45;;;;;;;33.67;21.20;;;5.00;99.90;;;;;;4990568;28;20026;-86
2021/03/05 01:22:11;;;;;;;34.23;21.87;;;5.00;99.90;;;;;;4974813;28;20038;-86
2021/03/05 01:24:37;;;;;;;35.47;21.80;;;4.90;99.90;;;;;;4977500;28;20628;-86
2021/03/05 01:27:03;;;;;;;34.83;21.57;;;4.80;99.90;;;;;;4992901;28;20030;-87
2021/03/05 01:29:29;;;;;;;38.00;22.93;;;4.80;99.90;;;;;;4975255;28;20095;-86
2021/03/05 01:31:55;;;;;;;33.60;21.53;;;4.80;99.90;;;;;;5004854;28;20046;-86
2021/03/05 01:34:21;;;;;;;35.47;22.07;;;4.70;99.90;;;;;;4977798;28;20101;-87
2021/03/05 01:36:47;;;;;;;38.10;21.00;;;4.70;99.90;;;;;;4979035;28;20543;-86
2021/03/05 01:39:13;;;;;;;38.23;23.10;;;4.60;99.90;;;;;;4972644;28;20031;-86
2021/03/05 01:41:38;;;;;;;36.73;20.97;;;4.50;99.90;;;;;;4989329;28;20073;-87
2021/03/05 01:44:09;;;;;;;39.83;22.00;;;4.50;99.90;;;;;;4994367;28;20101;-87
2021/03/05 01:46:35;;;;;;;39.77;22.27;;;4.50;99.90;;;;;;4989976;28;20019;-86
2021/03/05 01:49:02;;;;;;;37.40;21.47;;;4.50;99.90;;;;;;4971097;28;20055;-87
2021/03/05 01:51:30;;;;;;;37.73;22.77;;;4.50;99.90;;;;;;4978266;28;20046;-86
2021/03/05 01:53:56;;;;;;;36.60;21.63;;;4.50;99.90;;;;;;4977243;28;20109;-86
2021/03/05 01:56:36;;;;;;;37.93;21.83;;;4.50;99.90;;;;;;4978436;28;20686;-87
2021/03/05 01:59:04;;;;;;;40.17;20.23;;;4.40;99.90;;;;;;4976916;28;20057;-86
2021/03/05 02:01:31;;;;;;;37.67;20.70;;;4.30;99.90;;;;;;4980448;28;20089;-87
2021/03/05 02:03:57;;;;;;;45.70;19.87;;;4.30;99.90;;;;;;4980558;28;20023;-86
2021/03/05 02:06:23;;;;;;;32.37;18.13;;;4.30;99.90;;;;;;4980183;28;20892;-85
2021/03/05 02:08:49;;;;;;;35.53;18.87;;;4.30;99.90;;;;;;4997164;28;20126;-86
2021/03/05 02:11:22;;;;;;;36.87;19.50;;;4.20;99.90;;;;;;4979512;28;20103;-85
2021/03/05 02:13:50;;;;;;;37.07;20.67;;;4.20;99.90;;;;;;4981223;28;20058;-86
2021/03/05 02:16:41;;;;;;;43.63;23.63;;;4.10;99.90;;;;;;4972722;28;20487;-86
2021/03/05 02:19:36;;;;;;;44.63;22.93;;;4.00;99.90;;;;;;4987948;28;20042;-85
2021/03/05 02:22:46;;;;;;;44.70;25.37;;;4.00;99.90;;;;;;4996506;28;20049;-85
2021/03/05 02:25:30;;;;;;;44.97;22.37;;;4.00;99.90;;;;;;4990298;28;20046;-86
2021/03/05 02:28:23;;;;;;;43.07;22.63;;;4.00;99.90;;;;;;5000394;28;20022;-86
2021/03/05 02:31:07;;;;;;;;;;;4.10;99.90;;;;;;4986263;28;20081;-86
2021/03/05 02:33:53;;;;;;;38.50;20.57;;;4.10;99.90;;;;;;4996850;28;19956;-86
2021/03/05 02:36:47;;;;;;;41.97;21.53;;;4.10;99.90;;;;;;4993095;28;20025;-85
2021/03/05 02:39:16;;;;;;;41.90;20.83;;;4.10;99.90;;;;;;4986771;28;20030;-85
2021/03/05 02:41:45;;;;;;;41.13;22.23;;;4.00;99.90;;;;;;4996803;28;20067;-85
2021/03/05 02:44:26;;;;;;;36.87;18.97;;;4.00;99.90;;;;;;4988195;28;20363;-85
2021/03/05 02:46:58;;;;;;;40.87;22.00;;;3.90;99.90;;;;;;4971566;28;20045;-86
2021/03/05 02:49:25;;;;;;;39.17;21.33;;;3.90;99.90;;;;;;4992300;28;20074;-86
2021/03/05 02:51:53;;;;;;;39.63;21.83;;;3.90;99.90;;;;;;4992991;28;20073;-85
2021/03/05 02:54:20;;;;;;;37.93;19.43;;;3.80;99.90;;;;;;4977952;28;20027;-85
2021/03/05 02:56:47;;;;;;;38.43;20.90;;;3.80;99.90;;;;;;4976682;28;20023;-86
2021/03/05 02:59:15;;;;;;;39.73;21.00;;;3.90;99.90;;;;;;4976361;28;20027;-85
2021/03/05 03:01:46;;;;;;;39.03;20.40;;;3.80;99.90;;;;;;4978815;28;20034;-85
2021/03/05 03:04:13;;;;;;;43.67;22.47;;;3.80;99.90;;;;;;4993220;28;20093;-86
2021/03/05 03:06:39;;;;;;;41.30;22.37;;;3.80;99.90;;;;;;5045418;23;20021;-94
2021/03/05 03:09:06;;;;;;;41.07;21.50;;;3.80;99.90;;;;;;5033685;28;20001;-94
2021/03/05 03:11:33;;;;;;;39.33;22.23;;;3.70;99.90;;;;;;5030727;28;20074;-94
2021/03/05 03:14:01;;;;;;;40.13;21.03;;;3.80;99.90;;;;;;5032839;28;20006;-95
2021/03/05 03:16:28;;;;;;;39.53;21.40;;;3.90;99.90;;;;;;5039736;28;20005;-94
2021/03/05 03:18:55;;;;;;;40.73;20.17;;;3.80;99.90;;;;;;5040905;28;20010;-95
2021/03/05 03:21:22;;;;;;;36.47;20.87;;;3.80;99.90;;;;;;5040361;28;20009;-94
2021/03/05 03:23:48;;;;;;;36.53;19.23;;;3.70;99.90;;;;;;5045797;28;20001;-96
2021/03/05 03:26:14;;;;;;;38.40;20.07;;;3.70;99.90;;;;;;5046727;28;20016;-93
2021/03/05 03:28:40;;;;;;;41.20;21.00;;;3.70;99.90;;;;;;5047583;28;20069;-95
2021/03/05 03:31:07;;;;;;;37.40;19.97;;;3.80;99.90;;;;;;5043594;28;20064;-96
2021/03/05 03:33:33;;;;;;;37.90;19.87;;;3.80;99.90;;;;;;5040507;28;20017;-95
2021/03/05 03:36:02;;;;;;;37.07;20.17;;;3.90;99.90;;;;;;5042121;28;20034;-95
2021/03/05 03:38:30;;;;;;;36.20;19.77;;;3.70;99.90;;;;;;5042661;28;20012;-94
2021/03/05 03:40:57;;;;;;;32.50;18.20;;;3.70;99.90;;;;;;5047905;28;20009;-96
2021/03/05 03:43:23;;;;;;;37.77;19.93;;;3.80;99.90;;;;;;5050897;28;20024;-95
2021/03/05 03:45:49;;;;;;;37.60;21.10;;;3.80;99.90;;;;;;5044548;28;20005;-95
2021/03/05 03:48:15;;;;;;;34.23;18.67;;;3.80;99.90;;;;;;5040883;28;19997;-96
2021/03/05 03:50:53;;;;;;;37.63;20.00;;;3.90;99.90;;;;;;5040946;28;20010;-94
2021/03/05 03:53:24;;;;;;;36.13;20.00;;;3.80;99.90;;;;;;5045709;28;20001;-94
2021/03/05 03:55:51;;;;;;;35.30;19.77;;;3.80;99.90;;;;;;5050356;28;20068;-94
2021/03/05 03:58:18;;;;;;;32.13;16.70;;;3.80;99.90;;;;;;5045333;28;20017;-94
2021/03/05 04:00:46;;;;;;;34.27;19.63;;;3.80;99.90;;;;;;5044336;28;20037;-94
2021/03/05 04:03:13;;;;;;;35.43;19.73;;;3.70;99.90;;;;;;5039293;28;20040;-93
2021/03/05 04:05:43;;;;;;;32.00;18.63;;;3.70;99.90;;;;;;5037660;28;20002;-94
2021/03/05 04:08:12;;;;;;;28.97;17.27;;;3.70;99.90;;;;;;5037908;28;20020;-94
2021/03/05 04:10:39;;;;;;;28.97;17.03;;;3.80;99.90;;;;;;5039087;28;20008;-94
2021/03/05 04:13:06;;;;;;;25.10;15.90;;;3.70;99.90;;;;;;5042219;28;20001;-95
2021/03/05 04:15:33;;;;;;;26.50;16.67;;;3.60;99.90;;;;;;5039757;28;20015;-93
2021/03/05 04:18:00;;;;;;;31.17;17.03;;;3.80;99.90;;;;;;5046655;28;20032;-92
2021/03/05 04:20:26;;;;;;;34.43;17.37;;;3.60;99.90;;;;;;5041723;28;20001;-94
2021/03/05 04:22:53;;;;;;;25.17;15.23;;;3.70;99.90;;;;;;5039708;28;20072;-96
2021/03/05 04:25:19;;;;;;;26.67;16.20;;;3.70;99.90;;;;;;5040555;28;19997;-93
2021/03/05 04:27:45;;;;;;;25.93;15.87;;;3.60;99.90;;;;;;5041622;28;20006;-93
2021/03/05 04:30:12;;;;;;;24.00;15.73;;;3.70;99.90;;;;;;5044614;28;20005;-95
2021/03/05 04:32:41;;;;;;;23.77;15.87;;;3.50;99.90;;;;;;5043318;28;20009;-94
2021/03/05 04:35:09;;;;;;;28.50;15.30;;;3.50;99.90;;;;;;5036134;28;20018;-96
2021/03/05 04:37:36;;;;;;;22.83;14.70;;;3.40;99.90;;;;;;5045540;28;20024;-95
2021/03/05 04:40:04;;;;;;;23.17;14.43;;;3.60;99.90;;;;;;5034375;28;20028;-94
2021/03/05 04:42:30;;;;;;;22.37;14.50;;;3.40;99.90;;;;;;5032154;28;20018;-95
2021/03/05 04:44:56;;;;;;;23.80;14.67;;;3.50;99.90;;;;;;5036305;28;20203;-94
2021/03/05 04:47:21;;;;;;;21.63;14.47;;;3.50;99.90;;;;;;5037832;28;20049;-94
2021/03/05 04:49:47;;;;;;;21.67;13.83;;;3.50;99.90;;;;;;5045675;28;20022;-92
2021/03/05 04:52:13;;;;;;;20.60;13.87;;;3.40;99.90;;;;;;5037445;28;20025;-95
2021/03/05 04:54:39;;;;;;;22.80;14.47;;;3.40;99.90;;;;;;5036049;28;20013;-95
2021/03/05 04:57:05;;;;;;;21.67;13.60;;;3.50;99.90;;;;;;5036998;28;20053;-94
2021/03/05 04:59:30;;;;;;;23.17;14.87;;;3.40;99.90;;;;;;5036831;28;20013;-95
2021/03/05 05:01:56;;;;;;;21.37;14.03;;;3.50;99.90;;;;;;5044737;28;20036;-94
2021/03/05 05:04:21;;;;;;;21.60;14.10;;;3.50;99.90;;;;;;5042382;28;20056;-94
2021/03/05 05:06:47;;;;;;;20.40;13.43;;;3.60;99.90;;;;;;5038059;28;20075;-94
2021/03/05 05:09:13;;;;;;;21.67;14.20;;;3.60;99.90;;;;;;5035732;28;20026;-94
2021/03/05 05:11:39;;;;;;;24.87;13.90;;;3.60;99.90;;;;;;5036877;28;20013;-95
2021/03/05 05:14:04;;;;;;;21.10;14.03;;;3.50;99.90;;;;;;5037280;28;20089;-94
2021/03/05 05:16:30;;;;;;;21.57;13.97;;;3.60;99.90;;;;;;5037269;28;20557;-95
2021/03/05 05:18:56;;;;;;;20.80;13.80;;;3.60;99.90;;;;;;5038238;28;20114;-94
2021/03/05 05:21:22;;;;;;;20.73;13.40;;;3.80;99.90;;;;;;5040220;28;20029;-93
2021/03/05 05:23:47;;;;;;;21.20;13.23;;;3.60;99.90;;;;;;5038409;28;20025;-93
2021/03/05 05:26:14;;;;;;;22.70;14.10;;;3.70;99.90;;;;;;5038830;28;20024;-95
2021/03/05 05:28:39;;;;;;;19.90;12.53;;;3.60;99.90;;;;;;5041438;28;20081;-94
2021/03/05 05:31:05;;;;;;;21.07;13.77;;;3.60;99.90;;;;;;5042160;28;20014;-93
2021/03/05 05:33:31;;;;;;;21.03;12.73;;;3.70;99.90;;;;;;5040976;28;20016;-95
2021/03/05 05:35:56;;;;;;;19.90;11.60;;;3.60;99.90;;;;;;5041028;28;20020;-95
2021/03/05 05:38:22;;;;;;;18.77;11.90;;;3.60;99.90;;;;;;5041387;28;20009;-95
2021/03/05 05:40:48;;;;;;;18.70;11.97;;;3.50;99.90;;;;;;5045496;28;20029;-93
2021/03/05 05:43:14;;;;;;;17.97;10.83;;;3.50;99.90;;;;;;5039243;28;20022;-93
2021/03/05 05:45:40;;;;;;;17.70;11.27;;;3.50;99.90;;;;;;5040215;28;20010;-92
2021/03/05 05:48:11;;;;;;;18.60;12.30;;;3.50;99.90;;;;;;5038567;28;20020;-92
2021/03/05 05:50:38;;;;;;;14.50;8.75;;;3.50;99.90;;;;;;5034495;28;20026;-93
2021/03/05 05:53:06;;;;;;;19.80;12.67;;;3.50;99.90;;;;;;5039006;28;20044;-91
2021/03/05 05:55:32;;;;;;;20.37;12.70;;;3.60;99.90;;;;;;5042218;28;20005;-92
2021/03/05 05:57:58;;;;;;;21.30;12.87;;;3.50;99.90;;;;;;5040155;28;20022;-93
2021/03/05 06:00:25;;;;;;;20.93;12.77;;;3.50;99.90;;;;;;5041544;28;20075;-92
2021/03/05 06:02:51;;;;;;;20.17;11.97;;;3.50;99.90;;;;;;5037077;28;20034;-91
2021/03/05 06:05:17;;;;;;;20.07;12.07;;;3.50;99.90;;;;;;5039132;28;20018;-93
2021/03/05 06:07:43;;;;;;;20.97;12.27;;;3.50;99.90;;;;;;5038668;28;20027;-93
2021/03/05 06:10:11;;;;;;;19.07;12.03;;;3.50;99.90;;;;;;5038851;28;20093;-93
2021/03/05 06:12:37;;;;;;;19.90;12.37;;;3.50;99.90;;;;;;5041940;28;20076;-92
2021/03/05 06:15:03;;;;;;;19.67;12.07;;;3.50;99.90;;;;;;5042473;28;20386;-93
2021/03/05 06:17:46;;;;;;;18.53;11.20;;;3.50;99.90;;;;;;5038033;28;20026;-92
2021/03/05 06:20:13;;;;;;;19.07;11.30;;;3.40;99.90;;;;;;5038356;28;20025;-92
2021/03/05 06:22:39;;;;;;;19.20;11.70;;;3.40;99.90;;;;;;5039577;28;20014;-94
2021/03/05 06:25:10;;;;;;;27.67;15.57;;;3.40;99.90;;;;;;5049136;28;20084;-92
2021/03/05 06:27:37;;;;;;;21.20;13.33;;;3.30;99.90;;;;;;5035787;28;20034;-93
2021/03/05 06:30:04;;;;;;;25.70;14.50;;;3.50;99.90;;;;;;5043755;28;20025;-91
2021/03/05 06:32:39;;;;;;;26.40;14.43;;;3.40;99.90;;;;;;5038012;28;20399;-94
2021/03/05 07:32:49;;;;;;;21.15;11.60;;;3.50;99.90;;;;;;4972600;28;20043;-87
2021/03/05 07:35:30;;;;;;;24.10;12.00;;;3.50;99.90;;;;;;4972019;28;20616;-87
2021/03/05 07:38:03;;;;;;;20.77;11.73;;;3.50;99.90;;;;;;4971245;28;20023;-86
2021/03/05 07:40:31;;;;;;;22.20;12.13;;;3.50;99.90;;;;;;4971271;28;20045;-88
2021/03/05 07:43:05;;;;;;;24.87;12.77;;;3.50;99.90;;;;;;4969777;28;20031;-88
2021/03/05 07:48:47;;;;;;;;;;;;;;;;;;;;;
2021/03/05 07:55:02;;;;;;;20.93;11.20;;;3.60;99.90;;;;;;4879483;29;20040;-87
2021/03/05 07:57:44;;;;;;;23.30;12.37;;;3.50;99.90;;;;;;4933777;29;20024;-89
2021/03/05 08:01:03;;;;;;;24.37;13.43;;;3.60;99.90;;;;;;4932463;29;20047;-90
2021/03/05 08:03:56;;;;;;;23.53;12.50;;;3.60;99.90;;;;;;4929796;29;20031;-90
2021/03/05 08:06:29;;;;;;;23.60;12.13;;;3.50;99.90;;;;;;5015582;28;20419;-90
2021/03/05 08:09:15;;;;;;;23.33;12.77;;;3.50;99.90;;;;;;5015391;28;20018;-90
2021/03/05 08:11:47;;;;;;;23.40;12.30;;;3.40;99.90;;;;;;5015078;28;20037;-89
2021/03/05 08:14:25;;;;;;;25.23;12.30;;;3.50;99.90;;;;;;5002700;28;20389;-90
2021/03/05 08:17:29;;;;;;;24.70;13.27;;;3.50;99.90;;;;;;5008205;28;20033;-90
2021/03/05 08:19:58;;;;;;;24.40;12.03;;;3.50;99.90;;;;;;4997949;28;20125;-89
2021/03/05 08:22:32;;;;;;;23.50;12.63;;;3.50;99.90;;;;;;5016056;28;20037;-90
2021/03/05 08:25:47;;;;;;;24.17;12.73;;;3.50;99.90;;;;;;5015815;28;20049;-91
2021/03/05 08:28:42;;;;;;;22.10;12.63;;;3.60;99.90;;;;;;5015404;28;20030;-90
2021/03/05 08:31:57;;;;;;;22.63;12.23;;;3.60;99.90;;;;;;5010889;28;20425;-90
2021/03/05 08:34:27;;;;;;;22.00;11.90;;;3.60;99.90;;;;;;5015685;28;20030;-92
2021/03/05 08:36:54;;;;;;;23.80;12.80;;;3.60;99.90;;;;;;5025779;28;20017;-93
2021/03/05 08:39:28;;;;;;;25.50;13.17;;;3.60;99.90;;;;;;5039453;28;20014;-92
2021/03/05 08:42:29;;;;;;;27.40;13.13;;;3.70;99.90;;;;;;5021638;28;20041;-93
2021/03/05 08:45:28;;;;;;;25.17;12.27;;;3.60;99.90;;;;;;5015954;28;20573;-92
2021/03/05 08:48:03;;;;;;;23.60;12.47;;;3.70;99.90;;;;;;5016301;28;20037;-91
2021/03/05 08:50:36;;;;;;;22.93;11.97;;;3.70;99.90;;;;;;5023932;28;20045;-92
2021/03/05 08:53:08;;;;;;;22.87;11.60;;;3.70;99.90;;;;;;5023078;28;20551;-89
2021/03/05 08:55:40;;;;;;;22.70;12.20;;;3.70;99.90;;;;;;5010119;28;20026;-89
2021/03/05 08:58:06;;;;;;;27.70;12.30;;;3.70;99.90;;;;;;5014034;28;20049;-90
2021/03/05 09:00:36;;;;;;;25.77;13.33;;;3.80;99.90;;;;;;5007222;28;20327;-90
2021/03/05 09:03:11;;;;;;;22.47;12.07;;;3.80;99.90;;;;;;5008545;28;20030;-90
2021/03/05 09:05:47;;;;;;;23.33;12.27;;;3.80;99.90;;;;;;5029009;28;20032;-91
2021/03/05 09:08:22;;;;;;;22.80;12.30;;;3.90;99.90;;;;;;5023611;28;20014;-92
2021/03/05 09:10:52;;;;;;;22.93;11.30;;;4.00;99.90;;;;;;5009032;28;20052;-90
2021/03/05 09:13:27;;;;;;;23.33;12.37;;;4.00;99.90;;;;;;5006781;28;20581;-90
2021/03/05 09:15:55;;;;;;;21.00;11.73;;;4.00;99.90;;;;;;5008872;28;20040;-91
2021/03/05 09:18:26;;;;;;;20.73;11.03;;;4.10;99.90;;;;;;5023204;28;20034;-91
2021/03/05 09:20:56;;;;;;;22.52;11.65;;;4.10;99.90;;;;;;5024452;28;20075;-91
2021/03/05 09:23:29;;;;;;;22.90;12.17;;;4.10;99.90;;;;;;5011490;28;20037;-91
2021/03/05 09:26:05;;;;;;;21.30;11.43;;;4.20;99.90;;;;;;5012000;28;20390;-90
2021/03/05 09:28:39;;;;;;;22.87;12.50;;;4.20;99.90;;;;;;5011983;28;20022;-90
2021/03/05 09:31:08;;;;;;;25.57;12.57;;;4.10;99.90;;;;;;5014822;28;20438;-89
2021/03/05 09:33:39;;;;;;;18.87;11.10;;;4.20;99.90;;;;;;5010348;28;20025;-89
2021/03/05 09:36:06;;;;;;;21.43;11.43;;;4.20;99.90;;;;;;5011089;28;20282;-89
2021/03/05 09:38:32;;;;;;;26.80;11.70;;;4.20;99.90;;;;;;5012708;28;20033;-89
2021/03/05 09:41:23;;;;;;;20.23;11.43;;;4.10;99.90;;;;;;5006671;28;20065;-89
2021/03/05 09:44:05;;;;;;;20.67;11.10;;;4.20;99.90;;;;;;5010721;28;20100;-89
2021/03/05 09:46:33;;;;;;;21.53;10.83;;;4.10;99.90;;;;;;5009216;28;20520;-89
2021/03/05 09:49:01;;;;;;;18.23;10.80;;;4.10;99.90;;;;;;5010180;28;20025;-89
2021/03/05 09:51:37;;;;;;;21.27;11.50;;;4.00;99.90;;;;;;5009509;28;20196;-89
2021/03/05 09:54:02;;;;;;;21.50;10.77;;;3.90;99.90;;;;;;5010904;28;20502;-89
2021/03/05 09:56:48;;;;;;;21.13;11.57;;;4.00;99.90;;;;;;5010167;28;20040;-88
2021/03/05 09:59:15;;;;;;;19.73;10.73;;;4.00;99.90;;;;;;5010156;28;20029;-87
2021/03/05 10:01:44;;;;;;;19.60;10.60;;;4.10;99.90;;;;;;5011905;28;20022;-89
2021/03/05 10:04:14;;;;;;;24.90;12.50;;;4.10;99.90;;;;;;5008182;28;20505;-91
2021/03/05 10:06:40;;;;;;;18.93;10.47;;;4.20;99.90;;;;;;5007976;28;20028;-89
2021/03/05 10:09:10;;;;;;;21.87;11.07;;;4.20;99.90;;;;;;5012185;28;20018;-89
2021/03/05 10:11:38;;;;;;;19.40;11.10;;;4.30;99.90;;;;;;5010663;28;20068;-90
2021/03/05 10:14:25;;;;;;;19.57;10.90;;;4.40;99.90;;;;;;5013271;28;20029;-90
2021/03/05 10:16:51;;;;;;;19.27;9.63;;;4.60;99.90;;;;;;5015518;28;20052;-88
2021/03/05 10:19:23;;;;;;;18.83;10.30;;;4.50;99.90;;;;;;5010372;28;20274;-89
2021/03/05 10:21:52;;;;;;;18.77;10.52;;;4.40;99.90;;;;;;5014986;28;20036;-89
2021/03/05 10:24:21;;;;;;;22.77;10.60;;;4.30;99.90;;;;;;5016469;28;20025;-91
2021/03/05 10:27:14;;;;;;;19.83;10.67;;;4.20;99.90;;;;;;5019157;28;20021;-90
2021/03/05 10:29:57;;;;;;;19.83;9.87;;;4.30;99.90;;;;;;5015793;28;20025;-89
2021/03/05 10:32:29;;;;;;;18.85;10.40;;;4.40;99.90;;;;;;5014616;28;20037;-89
2021/03/05 10:35:10;;;;;;;18.60;9.83;;;4.40;99.90;;;;;;5015275;28;20017;-89
2021/03/05 10:37:39;;;;;;;18.37;10.67;;;4.50;99.90;;;;;;5018080;28;20103;-90
2021/03/05 10:40:07;;;;;;;18.10;10.80;;;4.70;99.90;;;;;;5026687;28;20100;-90
2021/03/05 10:42:33;;;;;;;19.50;10.80;;;4.70;99.90;;;;;;5018042;28;20025;-89
2021/03/05 10:45:00;;;;;;;19.47;10.63;;;4.80;99.90;;;;;;5033264;28;20093;-90
2021/03/05 10:47:26;;;;;;;19.17;10.43;;;4.80;99.90;;;;;;5014671;28;20540;-89
2021/03/05 10:49:53;;;;;;;17.30;9.90;;;4.90;99.90;;;;;;5014600;28;20070;-89
2021/03/05 10:52:23;;;;;;;21.70;9.60;;;4.90;99.90;;;;;;5012554;28;20049;-90
2021/03/05 10:54:49;;;;;;;17.53;9.13;;;5.00;99.90;;;;;;5012594;28;20025;-87
2021/03/05 10:57:16;;;;;;;21.00;9.70;;;4.90;99.90;;;;;;5030119;28;20021;-88
2021/03/05 10:59:43;;;;;;;17.77;9.07;;;4.90;99.90;;;;;;5011821;28;20029;-90
2021/03/05 11:02:09;;;;;;;17.93;10.57;;;4.90;99.90;;;;;;5012207;28;20028;-89
2021/03/05 11:04:40;;;;;;;18.33;10.57;;;4.80;99.90;;;;;;5013569;28;20020;-90
2021/03/05 11:07:06;;;;;;;16.87;9.33;;;4.80;99.90;;;;;;5012653;28;20025;-89
2021/03/05 11:09:39;;;;;;;18.60;9.83;;;4.90;99.90;;;;;;5011546;28;20026;-90
2021/03/05 11:12:06;;;;;;;18.85;10.23;;;4.80;99.90;;;;;;5009703;28;20037;-90
2021/03/05 11:14:32;;;;;;;19.67;10.93;;;4.90;99.90;;;;;;5014058;28;20067;-90
2021/03/05 11:16:58;;;;;;;18.03;9.87;;;4.90;99.90;;;;;;5008674;28;20123;-91
2021/03/05 11:19:25;;;;;;;19.77;9.97;;;5.10;99.90;;;;;;5012887;28;20467;-89
2021/03/05 11:22:05;;;;;;;;;;;;;;;;;;;;;
2021/03/05 11:24:31;;;;;;;17.93;10.07;;;5.20;99.90;;;;;;5029724;28;20028;-90
2021/03/05 11:26:57;;;;;;;20.33;10.40;;;5.30;99.90;;;;;;5014428;28;20120;-90
2021/03/05 11:29:25;;;;;;;21.53;9.73;;;5.30;99.90;;;;;;5029266;28;20017;-89
2021/03/05 11:31:51;;;;;;;18.03;9.60;;;5.20;99.90;;;;;;5033218;28;20025;-89
2021/03/05 11:34:18;;;;;;;16.77;9.20;;;5.30;99.90;;;;;;5015710;28;20394;-90
2021/03/05 11:36:44;;;;;;;18.27;9.53;;;5.30;99.90;;;;;;5015575;28;20538;-91
2021/03/05 11:39:10;;;;;;;18.73;10.00;;;5.30;99.90;;;;;;5014554;28;20033;-90
2021/03/05 11:41:36;;;;;;;17.07;9.73;;;5.10;99.90;;;;;;5022131;28;20033;-91
2021/03/05 11:44:11;;;;;;;16.17;9.53;;;5.10;99.90;;;;;;5008403;28;20030;-89
2021/03/05 11:46:37;;;;;;;18.40;10.20;;;5.00;99.90;;;;;;5009064;28;20485;-91
2021/03/05 11:49:03;;;;;;;15.57;9.90;;;4.90;99.90;;;;;;5008516;28;20028;-90
2021/03/05 11:51:29;;;;;;;18.90;10.40;;;4.80;99.90;;;;;;5014491;28;20029;-90
2021/03/05 11:53:55;;;;;;;21.00;10.37;;;4.80;99.90;;;;;;5015466;28;20068;-90
2021/03/05 11:56:20;;;;;;;16.53;10.37;;;4.80;99.90;;;;;;5013105;28;20037;-90
2021/03/05 11:58:46;;;;;;;17.23;9.67;;;4.70;99.90;;;;;;5020303;28;20037;-90
2021/03/05 12:01:13;;;;;;;14.60;8.90;;;4.90;99.90;;;;;;5021330;28;20034;-91
2021/03/05 12:03:40;;;;;;;15.63;8.83;;;4.80;99.90;;;;;;5019314;28;20057;-90
2021/03/05 12:06:06;;;;;;;15.33;9.10;;;4.70;99.90;;;;;;5019821;28;20017;-90
2021/03/05 12:08:32;;;;;;;17.40;10.30;;;4.80;99.90;;;;;;5022000;28;20026;-90
2021/03/05 12:10:58;;;;;;;16.53;9.40;;;4.80;99.90;;;;;;5031917;28;20044;-89
2021/03/05 12:13:24;;;;;;;16.73;9.33;;;4.90;99.90;;;;;;5020244;28;20045;-90
2021/03/05 12:15:49;;;;;;;16.73;9.07;;;4.80;99.90;;;;;;5002907;28;20034;-90
2021/03/05 12:18:16;;;;;;;17.87;8.80;;;4.80;99.90;;;;;;5017764;28;20049;-90
2021/03/05 12:20:42;;;;;;;17.97;10.27;;;4.80;99.90;;;;;;5018805;28;20033;-89
2021/03/05 12:23:08;;;;;;;19.90;9.80;;;4.70;99.90;;;;;;5018014;28;20032;-89
2021/03/05 12:25:35;;;;;;;19.70;10.70;;;4.70;99.90;;;;;;5024890;28;20025;-89
2021/03/05 12:28:01;;;;;;;18.70;10.80;;;4.80;99.90;;;;;;5032629;28;20018;-89
2021/03/05 12:30:27;;;;;;;18.40;10.43;;;4.80;99.90;;;;;;5020473;28;20492;-90
2021/03/05 12:32:52;;;;;;;21.70;10.00;;;4.90;99.90;;;;;;5017070;28;20120;-90
2021/03/05 12:35:18;;;;;;;17.73;10.20;;;4.90;99.90;;;;;;5004263;28;20050;-90
2021/03/05 12:37:45;;;;;;;22.57;10.13;;;4.90;99.90;;;;;;5021575;28;20033;-90
2021/03/05 12:40:13;;;;;;;18.47;10.97;;;4.90;99.90;;;;;;5020433;28;20029;-90
2021/03/05 12:42:41;;;;;;;18.83;11.20;;;5.00;99.90;;;;;;5020026;28;20040;-89
2021/03/05 12:45:08;;;;;;;20.27;10.10;;;4.90;99.90;;;;;;5017729;28;20478;-89
2021/03/05 12:47:35;;;;;;;17.07;10.03;;;5.00;99.90;;;;;;5022946;28;20022;-89
2021/03/05 12:50:03;;;;;;;18.60;10.30;;;5.10;99.90;;;;;;5024013;28;20021;-90
2021/03/05 12:52:30;;;;;;;19.50;10.53;;;5.10;99.90;;;;;;5003006;28;20131;-88
2021/03/05 12:54:55;;;;;;;20.50;10.73;;;5.20;99.90;;;;;;5020947;28;20056;-89
2021/03/05 12:57:23;;;;;;;17.33;10.30;;;5.20;99.90;;;;;;5032138;28;20033;-88
2021/03/05 12:59:49;;;;;;;18.93;10.70;;;5.30;99.90;;;;;;5021392;28;20018;-89
2021/03/05 13:02:15;;;;;;;18.97;10.87;;;5.30;99.90;;;;;;5027740;28;20032;-89
2021/03/05 13:04:40;;;;;;;18.60;10.43;;;5.30;99.90;;;;;;5013122;28;20482;-89
2021/03/05 13:07:06;;;;;;;19.00;10.73;;;5.30;99.90;;;;;;5009808;28;20022;-89
2021/03/05 13:09:32;;;;;;;17.87;10.63;;;5.40;99.90;;;;;;5017484;28;20497;-89
2021/03/05 13:11:57;;;;;;;17.37;10.10;;;5.40;99.90;;;;;;5009344;28;20398;-87
2021/03/05 13:14:23;;;;;;;17.87;9.87;;;5.50;99.90;;;;;;5011038;28;20060;-87
2021/03/05 13:16:49;;;;;;;17.83;10.20;;;5.50;99.90;;;;;;5013764;28;20044;-89
2021/03/05 13:19:15;;;;;;;15.97;9.43;;;5.50;99.90;;;;;;5011274;28;20037;-87
2021/03/05 13:21:40;;;;;;;18.43;9.13;;;5.50;99.90;;;;;;5014408;28;20033;-88
2021/03/05 13:24:07;;;;;;;17.77;9.33;;;5.60;99.90;;;;;;5007461;28;20069;-88
2021/03/05 13:26:33;;;;;;;15.47;9.40;;;5.60;99.90;;;;;;5013938;28;20028;-88
2021/03/05 13:28:58;;;;;;;15.17;9.73;;;5.70;99.90;;;;;;5012700;28;20393;-88
2021/03/05 13:31:24;;;;;;;17.03;10.00;;;5.70;99.90;;;;;;5015821;28;20545;-88
2021/03/05 13:33:49;;;;;;;17.70;9.40;;;5.70;99.90;;;;;;5012621;28;20026;-88
2021/03/05 13:36:18;;;;;;;18.13;10.73;;;5.90;99.90;;;;;;5009548;28;20544;-88
2021/03/05 13:38:44;;;;;;;18.20;9.77;;;5.90;99.90;;;;;;5019238;28;20530;-87
2021/03/05 13:41:10;;;;;;;17.87;9.93;;;5.90;99.90;;;;;;5011293;28;20025;-88
2021/03/05 13:43:36;;;;;;;19.53;10.60;;;6.00;99.90;;;;;;5009703;28;20479;-88
2021/03/05 13:46:02;;;;;;;17.00;9.97;;;5.90;99.90;;;;;;5014942;28;20037;-88
2021/03/05 13:48:28;;;;;;;21.53;11.00;;;5.90;99.90;;;;;;5022529;28;20087;-86
2021/03/05 13:50:53;;;;;;;20.43;11.20;;;5.90;99.90;;;;;;5022255;28;20029;-86
2021/03/05 13:53:19;;;;;;;16.90;9.97;;;5.90;99.90;;;;;;5017772;28;20034;-86
2021/03/05 13:55:45;;;;;;;19.70;10.37;;;5.90;99.90;;;;;;5020403;28;20187;-86
2021/03/05 13:58:12;;;;;;;15.70;9.23;;;6.00;99.90;;;;;;5021487;28;20088;-87